Terminal Aerodrome Forecast
Issued by NWS

Home | Current Version | Previous Version | Text Only | Print | Product List | Glossary On
Versions: 1 2 3 4 5 6 7 8 9 10 11 12 13 14
464
FTUS42 KTBW 160710 AAB
TAFPGD
TAF AMD
KPGD 160710Z 1607/1706 VRB03KT 4SM BR FEW250
      TEMPO 1607/1609 1SM BR
     FM160900 VRB03KT 3SM BR SCT010 SCT250
     FM161300 05005KT P6SM SCT015 SCT250
     FM161500 05007KT P6SM SCT040 SCT250
     FM170000 08005KT P6SM FEW250=

USA.gov is the U.S. government's official web portal to all federal, state and local government web resources and services.